Time;durP1;ratioP1;P1;durP2;ratioP2;P2;SDS_P1;SDS_P2;PMS_P1;PMS_P2;Temp;Humidity;BMP_temperature;BMP_pressure;BME280_temperature;BME280_humidity;BME280_pressure;Samples;Min_cycle;Max_cycle;Signal;HPM_P1;HPM_P2
2023/08/05 00:02:03;;;;;;;0.05;0.05;;;;;;;23.88;58.37;101762.03;4991159;28;20034;-68
2023/08/05 00:04:28;;;;;;;0.00;0.00;;;;;;;24.13;57.75;101756.31;4991478;28;20081;-68
2023/08/05 00:06:53;;;;;;;0.10;0.10;;;;;;;24.01;58.03;101755.06;4991265;28;20030;-69
2023/08/05 00:09:19;;;;;;;0.10;0.10;;;;;;;23.92;58.16;101749.38;4991191;28;20030;-69
2023/08/05 00:11:44;;;;;;;0.10;0.10;;;;;;;23.94;58.63;101746.34;4991240;28;20089;-68
2023/08/05 00:14:09;;;;;;;0.10;0.10;;;;;;;23.86;58.23;101747.00;4991345;28;20035;-69
2023/08/05 00:16:35;;;;;;;0.00;0.00;;;;;;;23.96;58.39;101755.13;4991979;28;20289;-68
2023/08/05 00:19:00;;;;;;;0.10;0.10;;;;;;;24.01;57.98;101742.16;4990701;28;20042;-68
2023/08/05 00:21:26;;;;;;;0.10;0.10;;;;;;;24.00;57.65;101737.75;4991107;28;20508;-68
2023/08/05 00:23:51;;;;;;;0.00;0.00;;;;;;;23.95;57.89;101729.59;4991040;28;20031;-68
2023/08/05 00:26:16;;;;;;;0.10;0.10;;;;;;;24.09;57.43;101735.22;4990776;28;20039;-69
2023/08/05 00:28:42;;;;;;;0.10;0.10;;;;;;;23.94;58.53;101729.88;4990972;28;20033;-67
2023/08/05 00:31:09;;;;;;;0.00;0.00;;;;;;;23.96;57.87;101730.41;4990914;28;20085;-69
2023/08/05 00:33:34;;;;;;;0.10;0.10;;;;;;;23.85;58.61;101720.63;4990835;28;20042;-68
2023/08/05 00:35:59;;;;;;;0.03;0.03;;;;;;;23.96;57.81;101722.16;4992417;28;20026;-69
2023/08/05 00:38:25;;;;;;;0.10;0.10;;;;;;;23.96;58.43;101720.22;4990685;28;20065;-68
2023/08/05 00:40:50;;;;;;;0.00;0.00;;;;;;;24.08;57.76;101717.91;4990599;28;20034;-68
2023/08/05 00:43:15;;;;;;;0.00;0.00;;;;;;;24.05;57.81;101718.50;4990797;28;20500;-68
2023/08/05 00:45:41;;;;;;;0.08;0.08;;;;;;;24.10;58.32;101707.44;4990482;28;20125;-69
2023/08/05 00:48:06;;;;;;;0.10;0.10;;;;;;;24.08;58.32;101711.59;4990472;28;20034;-70
2023/08/05 00:50:33;;;;;;;0.10;0.10;;;;;;;24.14;58.47;101708.50;4990208;28;20034;-68
2023/08/05 00:53:00;;;;;;;0.05;0.05;;;;;;;24.14;58.11;101707.66;4990320;28;20031;-68
2023/08/05 00:55:25;;;;;;;0.10;0.10;;;;;;;24.18;58.12;101705.97;4990748;28;20041;-68
2023/08/05 00:57:51;;;;;;;0.00;0.00;;;;;;;24.16;58.25;101709.03;4990722;28;20042;-68
2023/08/05 01:00:17;;;;;;;0.10;0.10;;;;;;;24.12;57.84;101709.91;4977142;28;20174;-68
2023/08/05 01:02:42;;;;;;;0.10;0.10;;;;;;;24.22;57.79;101712.50;4971131;28;20039;-69
2023/08/05 01:05:08;;;;;;;0.00;0.00;;;;;;;24.08;57.53;101722.56;4970851;28;20398;-69
2023/08/05 01:07:35;;;;;;;0.10;0.10;;;;;;;23.75;59.27;101721.56;4971564;28;20077;-68
2023/08/05 01:10:01;;;;;;;0.10;0.10;;;;;;;24.03;58.22;101711.66;4990703;28;20045;-69
2023/08/05 01:12:26;;;;;;;0.10;0.10;;;;;;;23.93;58.45;101711.75;4990539;28;20401;-69
2023/08/05 01:14:52;;;;;;;0.10;0.10;;;;;;;23.88;59.12;101712.63;4990349;28;20035;-69
2023/08/05 01:17:17;;;;;;;0.00;0.00;;;;;;;23.80;59.44;101704.25;4990558;28;20038;-69
2023/08/05 01:19:43;;;;;;;0.00;0.00;;;;;;;23.86;58.94;101703.06;4990806;28;20026;-68
2023/08/05 01:22:18;;;;;;;0.10;0.10;;;;;;;23.86;58.66;101705.81;4990789;28;20109;-69
2023/08/05 01:25:08;;;;;;;0.10;0.10;;;;;;;23.74;58.46;101705.41;4990493;28;20064;-69
2023/08/05 01:27:34;;;;;;;0.10;0.10;;;;;;;23.50;59.99;101695.22;4990162;28;20045;-69
2023/08/05 01:30:00;;;;;;;0.10;0.10;;;;;;;23.59;59.27;101700.09;4990254;28;20038;-69
2023/08/05 01:32:27;;;;;;;0.10;0.10;;;;;;;23.65;59.35;101690.66;4974844;28;20047;-69
2023/08/05 01:34:53;;;;;;;0.10;0.10;;;;;;;23.51;59.79;101690.53;4989585;28;20035;-68
2023/08/05 01:37:18;;;;;;;0.10;0.10;;;;;;;23.56;59.29;101693.25;5010025;28;20060;-68
2023/08/05 01:39:44;;;;;;;0.10;0.10;;;;;;;23.52;58.81;101675.72;5009759;28;20038;-69
2023/08/05 01:42:09;;;;;;;0.10;0.10;;;;;;;23.53;58.66;101680.91;5009358;28;20042;-70
2023/08/05 01:44:35;;;;;;;0.00;0.00;;;;;;;23.45;58.82;101667.84;5020082;28;20488;-69
2023/08/05 01:47:00;;;;;;;0.10;0.10;;;;;;;23.37;58.92;101665.72;5029276;28;20036;-69
2023/08/05 01:49:25;;;;;;;0.10;0.10;;;;;;;23.42;58.88;101668.44;5029391;28;20025;-68
2023/08/05 01:51:51;;;;;;;0.10;0.10;;;;;;;23.24;59.23;101674.59;5029139;28;20049;-68
2023/08/05 01:54:16;;;;;;;0.10;0.10;;;;;;;23.22;59.37;101673.25;5029273;28;20440;-68
2023/08/05 01:56:42;;;;;;;0.10;0.10;;;;;;;23.20;59.62;101681.78;5029313;28;20500;-68
2023/08/05 01:59:07;;;;;;;0.10;0.10;;;;;;;23.29;59.99;101676.50;5024965;28;20025;-71
2023/08/05 02:01:48;;;;;;;0.10;0.10;;;;;;;23.40;60.71;101678.03;5010144;28;20055;-69
2023/08/05 02:04:14;;;;;;;0.10;0.10;;;;;;;23.50;60.76;101686.19;5009291;28;20069;-69
2023/08/05 02:06:40;;;;;;;0.10;0.10;;;;;;;23.48;60.40;101677.41;5009252;28;20045;-69
2023/08/05 02:09:06;;;;;;;0.10;0.10;;;;;;;23.67;59.90;101670.06;5009229;28;20037;-69
2023/08/05 02:11:32;;;;;;;0.10;0.10;;;;;;;23.45;61.20;101680.72;5009153;28;20026;-70
2023/08/05 02:13:57;;;;;;;0.10;0.10;;;;;;;23.70;59.31;101683.22;5009378;28;20489;-69
2023/08/05 02:16:22;;;;;;;0.10;0.10;;;;;;;23.65;59.51;101683.25;5010891;28;20358;-69
2023/08/05 02:18:52;;;;;;;0.10;0.10;;;;;;;23.75;60.43;101668.59;4997857;28;20400;-69
2023/08/05 02:21:17;;;;;;;0.10;0.10;;;;;;;23.70;60.48;101677.72;5015757;28;20041;-69
2023/08/05 02:23:42;;;;;;;0.10;0.10;;;;;;;23.72;60.01;101680.16;5015786;28;20087;-69
2023/08/05 02:26:08;;;;;;;0.10;0.10;;;;;;;23.73;60.38;101671.63;5015632;28;20075;-69
2023/08/05 02:28:33;;;;;;;0.10;0.10;;;;;;;23.95;59.58;101682.06;5013985;28;20041;-69
2023/08/05 02:30:59;;;;;;;0.10;0.10;;;;;;;23.78;59.72;101688.06;5019072;28;20548;-69
2023/08/05 02:33:24;;;;;;;0.10;0.10;;;;;;;23.90;59.55;101679.41;5014963;28;20046;-69
2023/08/05 02:35:56;;;;;;;0.10;0.10;;;;;;;23.97;59.14;101672.44;5015573;28;20041;-69
2023/08/05 02:38:21;;;;;;;0.10;0.10;;;;;;;23.90;59.27;101669.22;5015559;28;20056;-69
2023/08/05 02:40:47;;;;;;;0.08;0.08;;;;;;;24.02;59.48;101668.81;5015516;28;20401;-68
2023/08/05 02:43:12;;;;;;;0.10;0.10;;;;;;;24.03;59.18;101670.47;5015548;28;20026;-68
2023/08/05 02:45:37;;;;;;;0.10;0.10;;;;;;;23.91;59.43;101664.56;5034659;28;20030;-70
2023/08/05 02:48:03;;;;;;;0.10;0.10;;;;;;;23.90;59.76;101663.72;5035173;28;20067;-69
2023/08/05 02:50:28;;;;;;;0.10;0.10;;;;;;;23.99;59.49;101655.66;5035096;28;20113;-68
2023/08/05 02:52:54;;;;;;;0.05;0.05;;;;;;;24.01;59.28;101665.25;5035491;28;20036;-69
2023/08/05 02:55:19;;;;;;;0.10;0.10;;;;;;;24.01;58.88;101658.94;5035865;28;20030;-69
2023/08/05 02:57:45;;;;;;;0.00;0.00;;;;;;;24.15;58.81;101660.72;5035158;28;20408;-69
2023/08/05 03:00:10;;;;;;;0.10;0.10;;;;;;;24.30;58.39;101657.72;5022420;28;20405;-69
2023/08/05 03:02:36;;;;;;;0.10;0.10;;;;;;;24.47;57.53;101659.16;5015362;28;20041;-69
2023/08/05 03:05:01;;;;;;;0.10;0.10;;;;;;;24.53;57.53;101655.22;5014966;28;20030;-68
2023/08/05 03:07:27;;;;;;;0.00;0.00;;;;;;;24.64;57.01;101665.75;5015639;28;20524;-69
2023/08/05 03:09:53;;;;;;;0.00;0.00;;;;;;;24.61;57.17;101660.03;5015260;28;20037;-68
2023/08/05 03:12:18;;;;;;;0.05;0.05;;;;;;;24.52;57.64;101650.81;5015507;28;20034;-69
2023/08/05 03:14:43;;;;;;;0.10;0.10;;;;;;;24.57;57.40;101642.50;5015064;28;20069;-67
2023/08/05 03:17:09;;;;;;;0.00;0.00;;;;;;;24.60;56.89;101653.72;5015117;28;20030;-69
2023/08/05 03:19:34;;;;;;;0.00;0.00;;;;;;;24.55;56.46;101634.53;5015616;28;20026;-69
2023/08/05 03:22:00;;;;;;;0.10;0.10;;;;;;;24.62;56.86;101637.75;5015287;28;20044;-68
2023/08/05 03:24:26;;;;;;;0.10;0.10;;;;;;;24.56;57.01;101638.09;5028272;28;20036;-69
2023/08/05 03:26:51;;;;;;;0.10;0.10;;;;;;;24.58;56.63;101628.47;5021871;28;20046;-69
2023/08/05 03:29:16;;;;;;;0.10;0.10;;;;;;;24.60;56.38;101628.97;5012610;28;20038;-68
2023/08/05 03:31:42;;;;;;;0.10;0.10;;;;;;;24.60;56.47;101633.66;5011859;28;20516;-69
2023/08/05 03:34:07;;;;;;;0.00;0.00;;;;;;;24.56;56.59;101633.44;5012046;28;20038;-69
2023/08/05 03:36:32;;;;;;;0.00;0.00;;;;;;;24.41;57.00;101630.94;5012127;28;20046;-69
2023/08/05 03:38:58;;;;;;;0.08;0.08;;;;;;;24.50;56.87;101626.38;5011839;28;20038;-69
2023/08/05 03:41:23;;;;;;;0.10;0.10;;;;;;;24.66;56.37;101611.28;5011815;28;20033;-69
2023/08/05 03:43:49;;;;;;;0.00;0.00;;;;;;;24.74;56.33;101613.38;5015913;28;20037;-68
2023/08/05 03:46:14;;;;;;;0.10;0.10;;;;;;;24.78;56.19;101610.84;5032031;28;20096;-69
2023/08/05 03:48:39;;;;;;;0.10;0.10;;;;;;;24.66;56.50;101613.22;5031392;28;20040;-69
2023/08/05 03:51:05;;;;;;;0.10;0.10;;;;;;;24.51;56.92;101605.22;5031381;28;20516;-69
2023/08/05 03:53:30;;;;;;;0.10;0.10;;;;;;;24.38;57.61;101598.53;5031433;28;20546;-69
2023/08/05 03:55:56;;;;;;;0.00;0.00;;;;;;;24.57;56.83;101588.31;5031307;28;20036;-68
2023/08/05 03:58:22;;;;;;;0.00;0.00;;;;;;;24.73;56.30;101589.75;5031516;28;20034;-70
2023/08/05 04:00:48;;;;;;;0.10;0.10;;;;;;;24.63;57.05;101586.34;5012780;28;20046;-69
2023/08/05 04:03:14;;;;;;;0.10;0.10;;;;;;;24.65;56.98;101582.16;4991498;28;20464;-70
2023/08/05 04:05:40;;;;;;;0.10;0.10;;;;;;;24.68;57.10;101578.81;5013943;28;20042;-69
2023/08/05 04:08:05;;;;;;;0.10;0.10;;;;;;;24.25;58.01;101569.88;5022021;28;20488;-70
2023/08/05 04:10:33;;;;;;;0.10;0.10;;;;;;;24.48;57.34;101570.91;5020798;28;20026;-69
2023/08/05 04:13:01;;;;;;;0.00;0.00;;;;;;;24.62;56.97;101566.28;5010764;28;20393;-68
2023/08/05 04:15:28;;;;;;;0.10;0.10;;;;;;;24.56;57.21;101564.72;5011284;28;20129;-69
2023/08/05 04:17:59;;;;;;;0.00;0.00;;;;;;;24.65;57.29;101573.91;5010271;28;20514;-68
2023/08/05 04:20:24;;;;;;;0.10;0.10;;;;;;;24.58;56.92;101570.75;5021504;28;20030;-69
2023/08/05 04:22:50;;;;;;;0.00;0.00;;;;;;;24.65;57.07;101568.41;5020056;28;20033;-68
2023/08/05 04:25:16;;;;;;;0.00;0.00;;;;;;;24.66;56.91;101566.47;5011425;28;20037;-69
2023/08/05 04:27:41;;;;;;;0.10;0.10;;;;;;;24.68;57.12;101564.25;5010868;28;20030;-69
2023/08/05 04:30:07;;;;;;;0.00;0.00;;;;;;;24.74;57.14;101569.41;5010873;28;20076;-68
2023/08/05 04:32:33;;;;;;;0.08;0.08;;;;;;;24.71;57.36;101567.19;5010718;28;20388;-68
2023/08/05 04:34:59;;;;;;;0.10;0.10;;;;;;;24.65;57.61;101562.13;5010258;28;20037;-69
2023/08/05 04:37:24;;;;;;;0.10;0.10;;;;;;;24.64;57.36;101561.28;5011232;28;20381;-69
2023/08/05 04:39:49;;;;;;;0.10;0.10;;;;;;;24.71;57.53;101555.38;5010058;28;20401;-68
2023/08/05 04:42:15;;;;;;;0.00;0.00;;;;;;;24.86;57.33;101552.41;5010628;28;20088;-69
2023/08/05 04:44:41;;;;;;;0.10;0.10;;;;;;;24.75;57.65;101553.69;5022109;28;20029;-69
2023/08/05 04:47:10;;;;;;;0.10;0.10;;;;;;;24.66;58.28;101545.31;5030367;28;20087;-69
2023/08/05 04:49:38;;;;;;;0.00;0.00;;;;;;;24.82;57.69;101549.47;5030391;28;20017;-70
2023/08/05 04:52:06;;;;;;;0.00;0.00;;;;;;;24.88;57.56;101550.19;5030181;28;20052;-69
2023/08/05 04:54:43;;;;;;;0.10;0.10;;;;;;;24.94;57.58;101558.00;5030014;28;20033;-70
2023/08/05 04:57:09;;;;;;;0.00;0.00;;;;;;;24.79;57.75;101541.78;5011802;28;20033;-69
2023/08/05 04:59:35;;;;;;;0.03;0.03;;;;;;;24.85;56.98;101548.84;5022629;28;20037;-69
2023/08/05 05:02:00;;;;;;;0.00;0.00;;;;;;;24.67;57.54;101546.13;5010283;28;20117;-68
2023/08/05 05:04:26;;;;;;;0.10;0.10;;;;;;;24.53;58.13;101537.81;5010431;28;20018;-68
2023/08/05 05:06:51;;;;;;;0.00;0.00;;;;;;;24.82;57.30;101535.72;5008608;28;20073;-69
2023/08/05 05:09:17;;;;;;;0.00;0.00;;;;;;;24.83;57.05;101529.06;5010010;28;20042;-69
2023/08/05 05:11:42;;;;;;;0.15;0.15;;;;;;;24.58;57.57;101528.69;5010103;28;20034;-68
2023/08/05 05:14:07;;;;;;;0.10;0.10;;;;;;;24.37;58.16;101533.72;5009956;28;20467;-69
2023/08/05 05:16:33;;;;;;;0.00;0.00;;;;;;;24.56;57.76;101533.66;5020529;28;20045;-69
2023/08/05 05:18:58;;;;;;;0.00;0.00;;;;;;;24.57;57.93;101535.31;5019660;28;20551;-70
2023/08/05 05:21:24;;;;;;;0.10;0.10;;;;;;;24.69;57.55;101528.19;5009383;28;20050;-70
2023/08/05 05:23:49;;;;;;;0.10;0.10;;;;;;;24.98;56.55;101531.53;5009879;28;20030;-69
2023/08/05 05:26:14;;;;;;;0.00;0.00;;;;;;;24.75;56.22;101528.94;5009564;28;20088;-69
2023/08/05 05:28:40;;;;;;;0.10;0.10;;;;;;;24.56;56.52;101523.50;5009714;28;20110;-69
2023/08/05 05:31:05;;;;;;;0.00;0.00;;;;;;;24.72;56.12;101524.03;5010006;28;20022;-68
2023/08/05 05:33:31;;;;;;;0.00;0.00;;;;;;;24.85;55.74;101510.34;5009238;28;20038;-67
2023/08/05 05:35:56;;;;;;;0.00;0.00;;;;;;;25.01;54.96;101510.84;5009441;28;20045;-68
2023/08/05 05:38:21;;;;;;;0.08;0.08;;;;;;;25.04;54.74;101508.31;5009493;28;20040;-69
2023/08/05 05:40:47;;;;;;;0.10;0.10;;;;;;;24.71;55.86;101511.41;5009810;28;20038;-69
2023/08/05 05:43:12;;;;;;;0.10;0.10;;;;;;;24.11;55.83;101514.09;5009395;28;20034;-68
2023/08/05 05:45:39;;;;;;;0.00;0.00;;;;;;;24.91;54.88;101517.38;5028531;28;20132;-68
2023/08/05 05:48:05;;;;;;;0.00;0.00;;;;;;;24.69;55.10;101517.19;5029051;28;20037;-69
2023/08/05 05:50:30;;;;;;;0.10;0.10;;;;;;;24.88;54.60;101512.50;5028679;28;20083;-69
2023/08/05 05:52:55;;;;;;;0.05;0.05;;;;;;;25.03;53.62;101509.44;5028171;28;20025;-69
2023/08/05 05:55:21;;;;;;;0.10;0.10;;;;;;;25.08;53.85;101500.28;5029775;28;20021;-68
2023/08/05 05:57:46;;;;;;;0.00;0.00;;;;;;;25.27;53.36;101504.56;5029094;28;20034;-69
2023/08/05 06:00:14;;;;;;;0.10;0.10;;;;;;;25.21;53.17;101507.72;5016009;28;20045;-69
2023/08/05 06:02:39;;;;;;;0.03;0.03;;;;;;;25.24;53.10;101501.56;5009072;28;20044;-69
2023/08/05 06:05:05;;;;;;;0.00;0.00;;;;;;;25.23;52.96;101500.78;5008898;28;20034;-69
2023/08/05 06:07:31;;;;;;;0.10;0.10;;;;;;;25.17;53.01;101496.50;5010162;28;20030;-68
2023/08/05 06:09:56;;;;;;;0.00;0.00;;;;;;;24.84;53.14;101499.66;5009066;28;20105;-69
2023/08/05 06:12:24;;;;;;;0.03;0.03;;;;;;;24.85;53.40;101493.03;5015419;28;20030;-68
2023/08/05 06:14:49;;;;;;;0.00;0.00;;;;;;;24.70;53.67;101509.78;5022231;28;20053;-68
2023/08/05 06:17:15;;;;;;;0.00;0.00;;;;;;;24.79;53.63;101502.47;5009114;28;20030;-69
2023/08/05 06:19:40;;;;;;;0.00;0.00;;;;;;;24.63;53.89;101499.16;5008975;28;20220;-70
2023/08/05 06:22:05;;;;;;;0.00;0.00;;;;;;;24.78;54.40;101501.69;5009443;28;20048;-69
2023/08/05 06:24:31;;;;;;;0.00;0.00;;;;;;;24.77;54.47;101502.78;5009141;28;20049;-68
2023/08/05 06:26:56;;;;;;;0.00;0.00;;;;;;;24.62;53.80;101496.72;4991550;28;20383;-69
2023/08/05 06:29:21;;;;;;;0.00;0.00;;;;;;;25.19;53.13;101499.78;5008870;28;20038;-68
2023/08/05 06:31:47;;;;;;;0.05;0.05;;;;;;;24.83;53.68;101495.25;5008889;28;20058;-68
2023/08/05 06:34:12;;;;;;;0.10;0.10;;;;;;;25.17;52.47;101490.19;5009425;28;20029;-69
2023/08/05 06:36:38;;;;;;;0.00;0.00;;;;;;;25.21;52.58;101493.94;5008692;28;20525;-69
2023/08/05 06:39:03;;;;;;;0.00;0.00;;;;;;;25.14;52.77;101488.84;5008759;28;20374;-68
2023/08/05 06:41:29;;;;;;;0.10;0.10;;;;;;;25.54;52.69;101494.63;5008775;28;20042;-69
2023/08/05 06:43:55;;;;;;;0.00;0.00;;;;;;;25.44;52.61;101490.19;5013947;28;20029;-68
2023/08/05 06:46:20;;;;;;;0.05;0.05;;;;;;;25.45;51.50;101502.00;5028872;28;20112;-69
2023/08/05 06:48:45;;;;;;;0.00;0.00;;;;;;;26.01;50.88;101497.66;5028451;28;20335;-69
2023/08/05 06:51:11;;;;;;;0.00;0.00;;;;;;;25.62;51.87;101496.66;5028188;28;20036;-69
2023/08/05 06:53:39;;;;;;;0.10;0.10;;;;;;;25.82;50.90;101497.03;5028457;28;20037;-68
2023/08/05 06:56:05;;;;;;;0.10;0.10;;;;;;;25.04;52.50;101502.00;5029029;28;20452;-69
2023/08/05 06:58:30;;;;;;;0.00;0.00;;;;;;;25.55;51.69;101488.81;5029310;28;20022;-69
2023/08/05 07:00:56;;;;;;;0.00;0.00;;;;;;;25.55;52.76;101480.56;5009992;28;20443;-68
2023/08/05 07:03:23;;;;;;;0.00;0.00;;;;;;;26.33;50.70;101484.78;5030037;28;20072;-70
2023/08/05 07:05:48;;;;;;;0.00;0.00;;;;;;;25.88;51.41;101487.53;5032088;28;20045;-69
2023/08/05 07:08:14;;;;;;;0.10;0.10;;;;;;;26.02;50.92;101482.75;5002560;28;20046;-69
2023/08/05 07:10:39;;;;;;;0.00;0.00;;;;;;;25.97;51.46;101487.56;5012196;28;20432;-68
2023/08/05 07:13:06;;;;;;;0.00;0.00;;;;;;;26.46;50.79;101479.19;5012567;28;20025;-69
2023/08/05 07:15:36;;;;;;;0.00;0.00;;;;;;;26.38;50.42;101481.91;5011876;28;20034;-69
2023/08/05 07:18:02;;;;;;;0.00;0.00;;;;;;;26.56;50.65;101484.44;5012288;28;20465;-68
2023/08/05 07:20:27;;;;;;;0.00;0.00;;;;;;;26.28;51.29;101480.22;5012045;28;20034;-69
2023/08/05 07:22:53;;;;;;;0.00;0.00;;;;;;;26.28;50.89;101482.16;5012092;28;20059;-69
2023/08/05 07:25:18;;;;;;;0.00;0.00;;;;;;;26.37;50.35;101475.56;5012274;28;20504;-69
2023/08/05 07:27:43;;;;;;;0.00;0.00;;;;;;;25.64;51.10;101467.72;5012129;28;20088;-68
2023/08/05 07:30:09;;;;;;;0.00;0.00;;;;;;;26.74;49.92;101464.13;5012311;28;20053;-68
2023/08/05 07:32:35;;;;;;;0.00;0.00;;;;;;;27.11;49.56;101470.25;5011364;28;20416;-68
2023/08/05 07:35:00;;;;;;;0.00;0.00;;;;;;;26.86;49.56;101469.84;5011758;28;20053;-69
2023/08/05 07:37:26;;;;;;;0.00;0.00;;;;;;;26.35;49.84;101477.84;5012067;28;20048;-70
2023/08/05 07:39:51;;;;;;;0.00;0.00;;;;;;;26.75;48.55;101478.72;5011584;28;20041;-68
2023/08/05 07:42:19;;;;;;;0.00;0.00;;;;;;;26.63;49.24;101473.75;5011748;28;20041;-68
2023/08/05 07:44:46;;;;;;;0.00;0.00;;;;;;;26.83;48.52;101462.19;5023580;28;20073;-68
2023/08/05 07:47:12;;;;;;;0.00;0.00;;;;;;;27.02;48.58;101450.09;5030999;28;20025;-69
2023/08/05 07:49:37;;;;;;;0.00;0.00;;;;;;;26.55;49.24;101458.00;5031351;28;20477;-68
2023/08/05 07:52:06;;;;;;;0.00;0.00;;;;;;;27.01;48.88;101445.72;5024089;28;20026;-69
2023/08/05 07:54:31;;;;;;;0.00;0.00;;;;;;;26.79;48.83;101439.16;4992408;28;20113;-69
2023/08/05 07:56:58;;;;;;;0.00;0.00;;;;;;;26.83;49.25;101433.78;4999819;28;20378;-68
2023/08/05 07:59:25;;;;;;;0.00;0.00;;;;;;;27.09;48.46;101420.91;4998057;28;20085;-68
2023/08/05 08:01:52;;;;;;;0.00;0.00;;;;;;;26.49;49.41;101420.69;5008681;28;20030;-69
2023/08/05 08:04:18;;;;;;;0.00;0.00;;;;;;;26.73;49.16;101415.59;5004903;28;20369;-69
2023/08/05 08:06:45;;;;;;;0.00;0.00;;;;;;;26.42;48.72;101419.47;4998592;28;20037;-69
2023/08/05 08:09:11;;;;;;;0.00;0.00;;;;;;;27.61;47.07;101408.81;5016662;28;20449;-68
2023/08/05 08:11:36;;;;;;;0.00;0.00;;;;;;;26.84;48.46;101399.59;5027239;28;20133;-68
2023/08/05 08:14:04;;;;;;;0.00;0.00;;;;;;;26.42;49.97;101401.00;5028311;28;20116;-69
2023/08/05 08:16:30;;;;;;;0.00;0.00;;;;;;;27.13;49.54;101402.56;5030162;28;20048;-69
2023/08/05 08:18:55;;;;;;;0.00;0.00;;;;;;;27.26;49.10;101396.06;5029991;28;20453;-69
2023/08/05 08:21:21;;;;;;;0.00;0.00;;;;;;;27.64;48.63;101390.75;5029984;28;20033;-68
2023/08/05 08:23:46;;;;;;;0.00;0.00;;;;;;;28.05;47.36;101391.06;5029730;28;20112;-68
2023/08/05 08:26:11;;;;;;;0.00;0.00;;;;;;;27.40;49.21;101382.19;5022983;28;20029;-69
2023/08/05 08:28:37;;;;;;;0.00;0.00;;;;;;;27.62;48.36;101387.50;5030089;28;20063;-67
2023/08/05 08:31:02;;;;;;;0.00;0.00;;;;;;;27.79;49.39;101385.53;5010966;28;20037;-70
2023/08/05 08:33:28;;;;;;;0.00;0.00;;;;;;;27.34;49.86;101381.50;5008630;28;20042;-69
2023/08/05 08:35:53;;;;;;;0.00;0.00;;;;;;;27.91;49.11;101378.56;5008969;28;20575;-69
2023/08/05 08:38:19;;;;;;;0.00;0.00;;;;;;;28.05;48.35;101374.47;5010832;28;20032;-68
2023/08/05 08:40:49;;;;;;;0.00;0.00;;;;;;;28.71;47.07;101372.13;5010334;28;20034;-68
2023/08/05 08:43:21;;;;;;;0.00;0.00;;;;;;;28.19;48.05;101371.50;5012827;28;20055;-68
2023/08/05 08:45:50;;;;;;;0.00;0.00;;;;;;;27.55;49.74;101365.94;5030151;28;20034;-69
2023/08/05 08:48:16;;;;;;;0.00;0.00;;;;;;;27.78;48.99;101359.06;5029902;28;20340;-70
2023/08/05 08:50:44;;;;;;;0.00;0.00;;;;;;;27.36;50.00;101354.38;5030083;28;20049;-70
2023/08/05 08:53:12;;;;;;;0.00;0.00;;;;;;;28.04;48.74;101352.69;5030250;28;20128;-69
2023/08/05 08:55:38;;;;;;;0.00;0.00;;;;;;;28.47;48.91;101353.34;5029824;28;20095;-70
2023/08/05 08:58:04;;;;;;;0.00;0.00;;;;;;;28.54;48.03;101343.41;5030888;28;20025;-69
2023/08/05 09:00:31;;;;;;;0.00;0.00;;;;;;;28.46;48.17;101337.91;5030003;28;20271;-69
2023/08/05 09:02:59;;;;;;;0.00;0.00;;;;;;;28.04;49.41;101334.19;5028407;28;20513;-70
2023/08/05 09:05:25;;;;;;;0.00;0.00;;;;;;;28.06;48.57;101323.59;5009982;28;20120;-71
2023/08/05 09:07:51;;;;;;;0.00;0.00;;;;;;;28.57;48.01;101323.41;5024796;28;20079;-71
2023/08/05 09:10:16;;;;;;;0.00;0.00;;;;;;;28.10;48.65;101327.34;5010327;28;20037;-69
2023/08/05 09:12:42;;;;;;;0.00;0.00;;;;;;;28.52;47.55;101318.00;5009924;28;20080;-68
2023/08/05 09:15:07;;;;;;;0.00;0.00;;;;;;;28.77;47.16;101310.75;5009930;28;20038;-68
2023/08/05 09:17:38;;;;;;;0.00;0.00;;;;;;;28.42;46.45;101312.84;5010030;28;20087;-69
2023/08/05 09:20:16;;;;;;;0.00;0.00;;;;;;;28.72;45.95;101312.91;5009954;28;20185;-69
2023/08/05 09:22:53;;;;;;;0.00;0.00;;;;;;;29.08;44.23;101308.41;5009773;28;20033;-68
2023/08/05 09:25:18;;;;;;;0.00;0.00;;;;;;;28.06;46.27;101301.50;5010322;28;20034;-69
2023/08/05 09:27:52;;;;;;;0.00;0.00;;;;;;;28.04;45.64;101292.72;5007679;28;20462;-68
2023/08/05 09:30:17;;;;;;;0.00;0.00;;;;;;;27.95;47.71;101296.66;5009672;28;20041;-69
2023/08/05 09:32:44;;;;;;;0.00;0.00;;;;;;;29.08;44.67;101293.75;5009334;28;20074;-69
2023/08/05 09:35:10;;;;;;;0.00;0.00;;;;;;;28.44;45.44;101295.97;5009369;28;20038;-69
2023/08/05 09:37:38;;;;;;;0.00;0.00;;;;;;;28.71;44.89;101289.97;5009645;28;20045;-69
2023/08/05 09:40:14;;;;;;;0.00;0.00;;;;;;;29.11;44.71;101285.56;5009624;28;20041;-69
2023/08/05 09:42:41;;;;;;;0.00;0.00;;;;;;;28.65;44.61;101283.00;5009608;28;20056;-68
2023/08/05 09:45:09;;;;;;;0.00;0.00;;;;;;;28.25;45.94;101287.25;5026710;28;20509;-68
2023/08/05 09:47:36;;;;;;;0.00;0.00;;;;;;;28.20;44.91;101279.16;5029219;28;20028;-70
2023/08/05 09:50:04;;;;;;;0.00;0.00;;;;;;;27.95;45.70;101271.81;5029193;28;20120;-69
2023/08/05 09:52:32;;;;;;;0.00;0.00;;;;;;;27.43;47.42;101271.91;5029156;28;20025;-69
2023/08/05 09:55:05;;;;;;;0.00;0.00;;;;;;;28.92;45.72;101263.09;5028989;28;20045;-68
2023/08/05 09:57:31;;;;;;;0.00;0.00;;;;;;;29.04;43.28;101270.66;5029107;28;20041;-69
2023/08/05 10:00:00;;;;;;;0.00;0.00;;;;;;;29.72;42.35;101258.16;5021410;28;20042;-68
2023/08/05 10:02:26;;;;;;;0.00;0.00;;;;;;;28.97;42.53;101251.81;5009029;28;20489;-68
2023/08/05 10:04:53;;;;;;;0.00;0.00;;;;;;;29.40;41.65;101245.94;5009014;28;20037;-68
2023/08/05 10:07:25;;;;;;;0.00;0.00;;;;;;;29.77;41.38;101242.13;5009768;28;20674;-70
2023/08/05 10:09:52;;;;;;;0.00;0.00;;;;;;;29.76;41.13;101234.16;5009245;28;20053;-69
2023/08/05 10:12:21;;;;;;;0.00;0.00;;;;;;;29.77;40.23;101231.03;5008926;28;20081;-69
2023/08/05 10:14:48;;;;;;;0.00;0.00;;;;;;;30.21;40.98;101230.13;5007576;28;20076;-68
2023/08/05 10:17:14;;;;;;;0.00;0.00;;;;;;;29.63;40.34;101224.16;4989359;28;20095;-68
2023/08/05 10:19:40;;;;;;;0.00;0.00;;;;;;;28.91;42.37;101221.94;4989773;28;20494;-68
2023/08/05 10:22:09;;;;;;;0.00;0.00;;;;;;;28.94;40.49;101216.53;5002004;28;20128;-69
2023/08/05 10:24:54;;;;;;;0.00;0.00;;;;;;;30.05;40.79;101209.00;5008198;28;20120;-69
2023/08/05 10:27:39;;;;;;;0.00;0.00;;;;;;;29.29;39.86;101208.72;5023376;28;20451;-69
2023/08/05 10:30:10;;;;;;;0.00;0.00;;;;;;;29.62;38.80;101197.63;5005621;28;20065;-69
2023/08/05 10:32:48;;;;;;;0.00;0.00;;;;;;;30.50;37.37;101195.00;5010741;28;20049;-68
2023/08/05 10:35:30;;;;;;;0.00;0.00;;;;;;;30.12;36.92;101198.13;5026812;28;20033;-68
2023/08/05 10:38:13;;;;;;;0.00;0.00;;;;;;;30.00;36.57;101187.84;5027696;28;20021;-69
2023/08/05 10:40:52;;;;;;;0.00;0.00;;;;;;;30.71;36.92;101195.63;5031161;28;20035;-69
2023/08/05 10:43:30;;;;;;;0.00;0.00;;;;;;;29.31;39.29;101198.94;5023563;28;20029;-69
2023/08/05 10:46:14;;;;;;;0.00;0.00;;;;;;;30.36;37.88;101192.59;5031877;28;20037;-69
2023/08/05 10:48:49;;;;;;;0.00;0.00;;;;;;;29.77;37.72;101185.88;5031839;28;20040;-68
2023/08/05 10:51:24;;;;;;;0.00;0.00;;;;;;;30.88;36.45;101187.84;5029083;28;20036;-69
2023/08/05 10:53:55;;;;;;;0.00;0.00;;;;;;;29.81;36.94;101181.28;5031704;28;20045;-69
2023/08/05 10:56:29;;;;;;;0.00;0.00;;;;;;;29.67;38.75;101189.88;5031482;28;20033;-69
2023/08/05 10:58:55;;;;;;;0.00;0.00;;;;;;;30.65;38.56;101180.38;5029676;28;20029;-70
2023/08/05 11:01:20;;;;;;;0.00;0.00;;;;;;;30.95;36.71;101174.16;5032388;28;20025;-68
2023/08/05 11:03:47;;;;;;;0.00;0.00;;;;;;;29.61;37.18;101171.88;5030744;28;20536;-69
2023/08/05 11:06:23;;;;;;;0.00;0.00;;;;;;;29.42;40.11;101157.78;5031436;28;20556;-71
2023/08/05 11:08:49;;;;;;;0.00;0.00;;;;;;;30.35;38.28;101166.00;5027594;28;20041;-70
2023/08/05 11:11:15;;;;;;;0.00;0.00;;;;;;;30.46;37.29;101152.47;5012889;28;20091;-69
2023/08/05 11:13:45;;;;;;;0.00;0.00;;;;;;;31.22;37.72;101153.06;5014139;28;20116;-68
2023/08/05 11:16:18;;;;;;;0.00;0.00;;;;;;;30.80;37.00;101141.56;5032241;28;20018;-70
2023/08/05 11:18:45;;;;;;;0.00;0.00;;;;;;;30.25;38.06;101135.97;5032080;28;20512;-72
2023/08/05 11:21:13;;;;;;;0.00;0.00;;;;;;;30.53;37.29;101134.06;5030942;28;20045;-70
2023/08/05 11:23:45;;;;;;;0.00;0.00;;;;;;;30.42;38.12;101132.94;5031788;28;20064;-69